createdAt,value
2019-03-29T00:00:26.639Z,22.37
2019-03-29T00:01:26.631Z,22.51
2019-03-29T00:02:26.616Z,22.46
2019-03-29T00:03:26.608Z,22.46
2019-03-29T00:04:27.048Z,22.51
2019-03-29T00:05:26.582Z,22.49
2019-03-29T00:06:26.574Z,22.55
2019-03-29T00:07:39.005Z,22.57
2019-03-29T00:08:27.550Z,22.52
2019-03-29T00:09:26.536Z,22.54
2019-03-29T00:10:26.531Z,22.45
2019-03-29T00:11:26.519Z,22.47
2019-03-29T00:12:26.512Z,22.43
2019-03-29T00:13:26.494Z,22.47
2019-03-29T00:14:26.480Z,22.52
2019-03-29T00:15:26.643Z,22.43
2019-03-29T00:16:26.460Z,22.42
2019-03-29T00:17:26.451Z,22.45
2019-03-29T00:18:26.436Z,22.49
2019-03-29T00:19:26.475Z,22.52
2019-03-29T00:20:26.409Z,22.39
2019-03-29T00:21:26.570Z,22.52
2019-03-29T00:22:26.392Z,22.51
2019-03-29T00:23:26.381Z,22.52
2019-03-29T00:24:26.367Z,22.55
2019-03-29T00:25:26.356Z,22.43
2019-03-29T00:26:26.349Z,22.51
2019-03-29T00:27:38.258Z,22.43
2019-03-29T00:28:26.321Z,22.49
2019-03-29T00:29:26.310Z,22.40
2019-03-29T00:30:26.297Z,22.49
2019-03-29T00:31:26.289Z,22.55
2019-03-29T00:32:26.289Z,22.54
2019-03-29T00:33:26.268Z,22.46
2019-03-29T00:34:26.256Z,22.51
2019-03-29T00:35:26.246Z,22.51
2019-03-29T00:36:26.232Z,22.47
2019-03-29T00:37:26.261Z,22.46
2019-03-29T00:38:26.219Z,22.46
2019-03-29T00:39:26.196Z,22.45
2019-03-29T00:40:26.187Z,22.52
2019-03-29T00:41:26.175Z,22.49
2019-03-29T00:42:26.270Z,22.45
2019-03-29T00:43:26.165Z,22.46
2019-03-29T00:44:26.255Z,22.47
2019-03-29T00:45:26.134Z,22.47
2019-03-29T00:46:26.122Z,22.43
2019-03-29T00:47:26.109Z,22.46
2019-03-29T00:48:26.277Z,22.45
2019-03-29T00:49:26.087Z,22.51
2019-03-29T00:50:26.074Z,22.55
2019-03-29T00:51:26.059Z,22.51
2019-03-29T00:52:26.053Z,22.46
2019-03-29T00:53:26.044Z,22.46
2019-03-29T00:54:26.071Z,22.47
2019-03-29T00:55:26.018Z,22.45
2019-03-29T00:56:26.005Z,22.49
2019-03-29T00:57:25.999Z,22.46
2019-03-29T00:58:37.765Z,22.45
2019-03-29T00:59:25.970Z,22.43
2019-03-29T01:00:25.971Z,22.51
2019-03-29T01:01:26.345Z,22.45
2019-03-29T01:02:25.939Z,22.47
2019-03-29T01:03:25.927Z,22.51
2019-03-29T01:04:25.922Z,22.49
2019-03-29T01:05:25.915Z,22.39
2019-03-29T01:06:25.890Z,22.45
2019-03-29T01:07:25.880Z,22.46
2019-03-29T01:08:25.869Z,22.43
2019-03-29T01:09:25.861Z,22.46
2019-03-29T01:10:26.018Z,22.42
2019-03-29T01:11:25.841Z,22.46
2019-03-29T01:12:25.825Z,22.47
2019-03-29T01:13:25.814Z,22.49
2019-03-29T01:14:25.807Z,22.49
2019-03-29T01:15:25.794Z,22.46
2019-03-29T01:16:25.785Z,22.46
2019-03-29T01:17:25.766Z,22.45
2019-03-29T01:18:25.760Z,22.42
2019-03-29T01:19:25.743Z,22.49
2019-03-29T01:20:25.732Z,22.45
2019-03-29T01:21:25.742Z,22.36
2019-03-29T01:22:25.709Z,22.37
2019-03-29T01:23:25.705Z,22.51
2019-03-29T01:24:25.690Z,22.46
2019-03-29T01:25:25.675Z,22.49
2019-03-29T01:26:27.035Z,22.46
2019-03-29T01:27:25.677Z,22.51
2019-03-29T01:28:25.650Z,22.43
2019-03-29T01:29:36.222Z,22.46
2019-03-29T01:30:25.620Z,22.43
2019-03-29T01:31:25.610Z,22.52
2019-03-29T01:32:25.615Z,22.43
2019-03-29T01:33:25.600Z,22.45
2019-03-29T01:34:25.578Z,22.35
2019-03-29T01:35:25.566Z,22.37
2019-03-29T01:36:25.555Z,22.45
2019-03-29T01:37:25.542Z,22.39
2019-03-29T01:38:25.546Z,22.46
2019-03-29T01:39:25.520Z,22.39
2019-03-29T01:40:25.515Z,22.46
2019-03-29T01:41:26.945Z,22.37
2019-03-29T01:42:25.486Z,22.33
2019-03-29T01:43:25.487Z,22.31
2019-03-29T01:44:25.472Z,22.42
2019-03-29T01:45:25.456Z,22.33
2019-03-29T01:46:25.459Z,22.30
2019-03-29T01:47:25.429Z,22.43
2019-03-29T01:48:25.417Z,22.43
2019-03-29T01:49:25.585Z,22.37
2019-03-29T01:50:25.397Z,22.31
2019-03-29T01:51:25.384Z,22.30
2019-03-29T01:52:25.374Z,22.30
2019-03-29T01:53:25.371Z,22.27
2019-03-29T01:54:25.351Z,22.42
2019-03-29T01:55:25.624Z,22.39
2019-03-29T01:56:25.330Z,22.45
2019-03-29T01:57:25.317Z,22.45
2019-03-29T01:58:25.445Z,22.45
2019-03-29T01:59:25.291Z,22.46
2019-03-29T02:00:36.506Z,22.37
2019-03-29T02:01:25.280Z,22.31
2019-03-29T02:02:25.266Z,22.40
2019-03-29T02:03:25.253Z,22.31
2019-03-29T02:04:25.271Z,22.27
2019-03-29T02:05:25.227Z,22.33
2019-03-29T02:06:25.228Z,22.28
2019-03-29T02:07:25.202Z,22.40
2019-03-29T02:08:35.276Z,22.36
2019-03-29T02:09:26.180Z,22.37
2019-03-29T02:10:25.177Z,22.36
2019-03-29T02:11:25.206Z,22.33
2019-03-29T02:12:25.154Z,22.30
2019-03-29T02:13:26.009Z,22.27
2019-03-29T02:14:25.140Z,22.31
2019-03-29T02:15:25.135Z,22.36
2019-03-29T02:16:25.192Z,22.35
2019-03-29T02:17:25.103Z,22.30
2019-03-29T02:18:25.099Z,22.31
2019-03-29T02:19:25.083Z,22.31
2019-03-29T02:20:25.063Z,22.42
2019-03-29T02:21:25.056Z,22.28
2019-03-29T02:22:25.081Z,22.33
2019-03-29T02:23:25.025Z,22.39
2019-03-29T02:24:25.020Z,22.33
2019-03-29T02:25:25.002Z,22.37
2019-03-29T02:26:24.994Z,22.24
2019-03-29T02:27:24.983Z,22.36
2019-03-29T02:28:25.009Z,22.27
2019-03-29T02:29:24.955Z,22.42
2019-03-29T02:30:24.950Z,22.31
2019-03-29T02:31:36.018Z,22.28
2019-03-29T02:32:25.540Z,22.46
2019-03-29T02:33:24.924Z,22.35
2019-03-29T02:34:24.911Z,22.42
2019-03-29T02:35:24.893Z,22.30
2019-03-29T02:36:24.877Z,22.36
2019-03-29T02:37:24.874Z,22.30
2019-03-29T02:38:24.861Z,22.31
2019-03-29T02:39:26.835Z,22.35
2019-03-29T02:40:24.849Z,22.36
2019-03-29T02:41:24.825Z,22.39
2019-03-29T02:42:24.820Z,22.28
2019-03-29T02:43:24.805Z,22.35
2019-03-29T02:44:24.926Z,22.40
2019-03-29T02:45:24.793Z,22.37
2019-03-29T02:46:25.887Z,22.30
2019-03-29T02:47:24.755Z,22.37
2019-03-29T02:48:24.742Z,22.37
2019-03-29T02:49:24.730Z,22.37
2019-03-29T02:50:24.762Z,22.36
2019-03-29T02:51:24.708Z,22.40
2019-03-29T02:52:24.696Z,22.36
2019-03-29T02:53:24.695Z,22.40
2019-03-29T02:54:24.676Z,22.40
2019-03-29T02:55:24.663Z,22.35
2019-03-29T02:56:24.667Z,22.31
2019-03-29T02:57:24.639Z,22.35
2019-03-29T02:58:24.629Z,22.35
2019-03-29T02:59:24.628Z,22.35
2019-03-29T03:00:24.611Z,22.39
2019-03-29T03:01:24.639Z,22.31
2019-03-29T03:02:34.914Z,22.36
2019-03-29T03:03:24.579Z,22.39
2019-03-29T03:04:24.567Z,22.39
2019-03-29T03:05:24.554Z,22.36
2019-03-29T03:06:24.542Z,22.31
2019-03-29T03:07:24.548Z,22.37
2019-03-29T03:08:24.517Z,22.30
2019-03-29T03:09:24.507Z,22.31
2019-03-29T03:10:24.497Z,22.33
2019-03-29T03:11:24.501Z,22.31
2019-03-29T03:12:24.479Z,22.31
2019-03-29T03:13:24.469Z,22.24
2019-03-29T03:14:24.509Z,22.30
2019-03-29T03:15:24.435Z,22.33
2019-03-29T03:16:24.433Z,22.30
2019-03-29T03:17:24.413Z,22.36
2019-03-29T03:18:24.441Z,22.25
2019-03-29T03:19:24.407Z,22.39
2019-03-29T03:20:24.385Z,22.28
2019-03-29T03:21:24.375Z,22.33
2019-03-29T03:22:24.380Z,22.35
2019-03-29T03:23:24.346Z,22.30
2019-03-29T03:24:24.362Z,22.28
2019-03-29T03:25:24.345Z,22.33
2019-03-29T03:26:24.322Z,22.36
2019-03-29T03:27:24.304Z,22.28
2019-03-29T03:28:24.298Z,22.35
2019-03-29T03:29:24.305Z,22.36
2019-03-29T03:30:24.330Z,22.33
2019-03-29T03:31:24.267Z,22.31
2019-03-29T03:32:24.278Z,22.31
2019-03-29T03:33:34.859Z,22.33
2019-03-29T03:34:24.241Z,22.33
2019-03-29T03:35:24.276Z,22.28
2019-03-29T03:36:24.214Z,22.36
2019-03-29T03:37:24.241Z,22.31
2019-03-29T03:38:24.182Z,22.36
2019-03-29T03:39:32.235Z,22.28
2019-03-29T03:40:25.168Z,22.28
2019-03-29T03:41:24.188Z,22.30
2019-03-29T03:42:24.138Z,22.35
2019-03-29T03:43:24.126Z,22.30
2019-03-29T03:44:24.117Z,22.31
2019-03-29T03:45:24.107Z,22.31
2019-03-29T03:46:24.093Z,22.31
2019-03-29T03:47:24.092Z,22.30
2019-03-29T03:48:24.067Z,22.30
2019-03-29T03:49:24.054Z,22.36
2019-03-29T03:50:24.041Z,22.28
2019-03-29T03:51:24.032Z,22.36
2019-03-29T03:52:24.081Z,22.31
2019-03-29T03:53:24.009Z,22.28
2019-03-29T03:54:24.000Z,22.36
2019-03-29T03:55:23.984Z,22.30
2019-03-29T03:56:23.974Z,22.39
2019-03-29T03:57:23.963Z,22.33
2019-03-29T03:58:23.999Z,22.37
2019-03-29T03:59:23.942Z,22.39
2019-03-29T04:00:23.949Z,22.33
2019-03-29T04:01:23.920Z,22.36
2019-03-29T04:02:23.913Z,22.33
2019-03-29T04:03:23.894Z,22.27
2019-03-29T04:04:37.661Z,22.40
2019-03-29T04:05:23.874Z,22.31
2019-03-29T04:06:23.864Z,22.35
2019-03-29T04:07:23.851Z,22.31
2019-03-29T04:08:23.847Z,22.35
2019-03-29T04:09:23.829Z,22.45
2019-03-29T04:10:23.825Z,22.36
2019-03-29T04:11:23.809Z,22.31
2019-03-29T04:12:23.801Z,22.42
2019-03-29T04:13:23.781Z,22.31
2019-03-29T04:14:23.784Z,22.43
2019-03-29T04:15:23.761Z,22.36
2019-03-29T04:16:23.751Z,22.35
2019-03-29T04:17:23.737Z,22.36
2019-03-29T04:18:23.736Z,22.39
2019-03-29T04:19:23.728Z,22.43
2019-03-29T04:20:23.746Z,22.30
2019-03-29T04:21:23.695Z,22.30
2019-03-29T04:22:23.692Z,22.36
2019-03-29T04:23:23.691Z,22.40
2019-03-29T04:24:23.658Z,22.42
2019-03-29T04:25:23.658Z,22.45
2019-03-29T04:26:23.643Z,22.39
2019-03-29T04:27:23.628Z,22.49
2019-03-29T04:28:23.620Z,22.39
2019-03-29T04:29:23.601Z,22.47
2019-03-29T04:30:23.603Z,22.47
2019-03-29T04:31:23.618Z,22.42
2019-03-29T04:32:23.572Z,22.45
2019-03-29T04:33:23.568Z,22.31
2019-03-29T04:34:23.559Z,22.43
2019-03-29T04:35:34.109Z,22.42
2019-03-29T04:36:23.532Z,22.45
2019-03-29T04:37:23.533Z,22.42
2019-03-29T04:38:23.506Z,22.43
2019-03-29T04:39:23.543Z,22.33
2019-03-29T04:40:23.482Z,22.33
2019-03-29T04:41:23.464Z,22.42
2019-03-29T04:42:23.495Z,22.31
2019-03-29T04:43:23.442Z,22.42
2019-03-29T04:44:23.430Z,22.42
2019-03-29T04:45:23.424Z,22.31
2019-03-29T04:46:23.411Z,22.42
2019-03-29T04:47:23.401Z,22.31
2019-03-29T04:48:23.395Z,22.37
2019-03-29T04:49:23.379Z,22.33
2019-03-29T04:50:23.361Z,22.33
2019-03-29T04:51:23.350Z,22.39
2019-03-29T04:52:23.344Z,22.35
2019-03-29T04:53:23.337Z,22.30
2019-03-29T04:54:23.329Z,22.37
2019-03-29T04:55:23.318Z,22.40
2019-03-29T04:56:23.301Z,22.36
2019-03-29T04:57:23.283Z,22.40
2019-03-29T04:58:23.274Z,22.35
2019-03-29T04:59:23.273Z,22.27
2019-03-29T05:00:23.250Z,22.37
2019-03-29T05:01:23.250Z,22.37
2019-03-29T05:02:23.234Z,22.39
2019-03-29T05:03:23.213Z,22.39
2019-03-29T05:04:23.249Z,22.42
2019-03-29T05:05:23.191Z,22.37
2019-03-29T05:06:34.066Z,22.36
2019-03-29T05:07:23.174Z,22.33
2019-03-29T05:08:23.156Z,22.35
2019-03-29T05:09:23.148Z,22.37
2019-03-29T05:10:23.175Z,22.36
2019-03-29T05:11:23.125Z,22.33
2019-03-29T05:12:23.119Z,22.35
2019-03-29T05:13:23.104Z,22.25
2019-03-29T05:14:23.090Z,22.27
2019-03-29T05:15:23.141Z,22.27
2019-03-29T05:16:23.108Z,22.36
2019-03-29T05:17:23.055Z,22.31
2019-03-29T05:18:23.049Z,22.36
2019-03-29T05:19:23.032Z,22.28
2019-03-29T05:20:23.025Z,22.28
2019-03-29T05:21:23.016Z,22.25
2019-03-29T05:22:23.009Z,22.30
2019-03-29T05:23:22.993Z,22.22
2019-03-29T05:24:22.975Z,22.31
2019-03-29T05:25:22.970Z,22.31
2019-03-29T05:26:25.421Z,22.28
2019-03-29T05:27:23.121Z,22.31
2019-03-29T05:28:22.936Z,22.37
2019-03-29T05:29:22.922Z,22.36
2019-03-29T05:30:22.915Z,22.35
2019-03-29T05:31:22.900Z,22.27
2019-03-29T05:32:22.888Z,22.21
2019-03-29T05:33:22.886Z,22.35
2019-03-29T05:34:22.863Z,22.24
2019-03-29T05:35:22.860Z,22.28
2019-03-29T05:36:22.841Z,22.20
2019-03-29T05:37:33.955Z,22.21
2019-03-29T05:38:22.863Z,22.24
2019-03-29T05:39:22.809Z,22.35
2019-03-29T05:40:34.290Z,22.22
2019-03-29T05:41:23.789Z,22.35
2019-03-29T05:42:22.775Z,22.24
2019-03-29T05:43:22.770Z,22.18
2019-03-29T05:44:22.772Z,22.22
2019-03-29T05:45:22.746Z,22.24
2019-03-29T05:46:22.731Z,22.27
2019-03-29T05:47:22.718Z,22.24
2019-03-29T05:48:22.706Z,22.28
2019-03-29T05:49:22.739Z,22.20
2019-03-29T05:50:22.684Z,22.27
2019-03-29T05:51:22.682Z,22.22
2019-03-29T05:52:22.666Z,22.25
2019-03-29T05:53:22.655Z,22.25
2019-03-29T05:54:22.643Z,22.22
2019-03-29T05:55:32.489Z,22.18
2019-03-29T05:56:23.652Z,22.20
2019-03-29T05:57:22.604Z,22.24
2019-03-29T05:58:22.600Z,22.24
2019-03-29T05:59:22.584Z,22.20
2019-03-29T06:00:24.623Z,22.30
2019-03-29T06:01:22.567Z,22.18
2019-03-29T06:02:22.727Z,22.36
2019-03-29T06:03:22.543Z,22.28
2019-03-29T06:04:22.529Z,22.24
2019-03-29T06:05:22.521Z,22.28
2019-03-29T06:06:22.508Z,22.28
2019-03-29T06:07:22.499Z,22.30
2019-03-29T06:08:33.246Z,22.27
2019-03-29T06:09:22.469Z,22.28
2019-03-29T06:10:22.458Z,22.33
2019-03-29T06:11:22.449Z,22.21
2019-03-29T06:12:22.435Z,22.35
2019-03-29T06:13:22.427Z,22.28
2019-03-29T06:14:22.428Z,22.35
2019-03-29T06:15:22.409Z,22.31
2019-03-29T06:16:22.398Z,22.31
2019-03-29T06:17:22.381Z,22.31
2019-03-29T06:18:22.366Z,22.39
2019-03-29T06:19:22.367Z,22.43
2019-03-29T06:20:22.347Z,22.33
2019-03-29T06:21:22.338Z,22.40
2019-03-29T06:22:22.327Z,22.31
2019-03-29T06:23:22.317Z,22.39
2019-03-29T06:24:22.342Z,22.42
2019-03-29T06:25:22.294Z,22.33
2019-03-29T06:26:22.278Z,22.40
2019-03-29T06:27:22.264Z,22.45
2019-03-29T06:28:22.256Z,22.39
2019-03-29T06:29:22.241Z,22.40
2019-03-29T06:30:22.275Z,22.57
2019-03-29T06:31:22.219Z,22.51
2019-03-29T06:32:22.212Z,22.51
2019-03-29T06:33:22.199Z,22.46
2019-03-29T06:34:22.188Z,22.49
2019-03-29T06:35:22.178Z,22.51
2019-03-29T06:36:22.207Z,22.52
2019-03-29T06:37:22.155Z,22.46
2019-03-29T06:38:22.146Z,22.47
2019-03-29T06:39:34.266Z,22.47
2019-03-29T06:40:22.120Z,22.52
2019-03-29T06:41:22.110Z,22.52
2019-03-29T06:42:22.131Z,22.55
2019-03-29T06:43:22.083Z,22.46
2019-03-29T06:44:22.142Z,22.54
2019-03-29T06:45:22.067Z,22.58
2019-03-29T06:46:22.049Z,22.57
2019-03-29T06:47:22.040Z,22.57
2019-03-29T06:48:22.040Z,22.54
2019-03-29T06:49:22.017Z,22.60
2019-03-29T06:50:22.009Z,22.60
2019-03-29T06:51:21.992Z,22.62
2019-03-29T06:52:22.027Z,22.58
2019-03-29T06:53:21.973Z,22.62
2019-03-29T06:54:21.961Z,22.70
2019-03-29T06:55:21.951Z,22.58
2019-03-29T06:56:21.938Z,22.62
2019-03-29T06:57:21.988Z,22.61
2019-03-29T06:58:21.960Z,22.67
2019-03-29T06:59:21.907Z,22.65
2019-03-29T07:00:21.897Z,22.61
2019-03-29T07:01:21.890Z,22.72
2019-03-29T07:02:21.874Z,22.75
2019-03-29T07:03:21.855Z,22.65
2019-03-29T07:04:21.856Z,22.73
2019-03-29T07:05:21.837Z,22.73
2019-03-29T07:06:21.822Z,22.77
2019-03-29T07:07:21.813Z,22.72
2019-03-29T07:08:21.802Z,22.73
2019-03-29T07:09:21.794Z,22.72
2019-03-29T07:10:32.493Z,22.77
2019-03-29T07:11:21.769Z,22.75
2019-03-29T07:12:21.760Z,22.76
2019-03-29T07:13:21.741Z,22.77
2019-03-29T07:14:21.747Z,22.80
2019-03-29T07:15:21.718Z,22.79
2019-03-29T07:16:21.721Z,22.80
2019-03-29T07:17:21.702Z,22.82
2019-03-29T07:18:21.691Z,22.79
2019-03-29T07:19:21.698Z,22.83
2019-03-29T07:20:21.673Z,22.82
2019-03-29T07:21:22.217Z,22.85
2019-03-29T07:22:21.642Z,22.82
2019-03-29T07:23:21.633Z,22.86
2019-03-29T07:24:21.623Z,22.82
2019-03-29T07:25:21.779Z,22.82
2019-03-29T07:26:21.594Z,22.86
2019-03-29T07:27:21.589Z,22.80
2019-03-29T07:28:21.577Z,22.80
2019-03-29T07:29:21.562Z,22.83
2019-03-29T07:30:21.554Z,22.83
2019-03-29T07:31:21.555Z,22.83
2019-03-29T07:32:21.526Z,22.88
2019-03-29T07:33:21.525Z,22.83
2019-03-29T07:34:21.509Z,22.88
2019-03-29T07:35:21.499Z,22.80
2019-03-29T07:36:21.654Z,22.83
2019-03-29T07:37:21.473Z,22.80
2019-03-29T07:38:21.467Z,22.83
2019-03-29T07:39:21.448Z,22.90
2019-03-29T07:40:21.452Z,22.88
2019-03-29T07:41:32.726Z,22.85
2019-03-29T07:42:21.413Z,22.90
2019-03-29T07:43:24.055Z,22.85
2019-03-29T07:44:21.392Z,22.82
2019-03-29T07:45:21.382Z,22.86
2019-03-29T07:46:21.369Z,22.79
2019-03-29T07:47:21.371Z,22.83
2019-03-29T07:48:21.345Z,22.85
2019-03-29T07:49:21.339Z,22.85
2019-03-29T07:50:21.347Z,22.82
2019-03-29T07:51:21.314Z,22.79
2019-03-29T07:52:21.339Z,22.83
2019-03-29T07:53:21.334Z,22.79
2019-03-29T07:54:21.282Z,22.83
2019-03-29T07:55:21.275Z,22.80
2019-03-29T07:56:21.267Z,22.82
2019-03-29T07:57:21.255Z,22.79
2019-03-29T07:58:21.231Z,22.75
2019-03-29T07:59:21.231Z,22.85
2019-03-29T08:00:21.211Z,22.79
2019-03-29T08:01:21.202Z,22.83
2019-03-29T08:02:21.188Z,22.82
2019-03-29T08:03:21.658Z,22.91
2019-03-29T08:04:21.721Z,22.85
2019-03-29T08:05:21.191Z,22.77
2019-03-29T08:06:21.150Z,22.83
2019-03-29T08:07:27.016Z,22.85
2019-03-29T08:08:24.745Z,22.85
2019-03-29T08:09:22.499Z,22.91
2019-03-29T08:10:27.339Z,22.88
2019-03-29T08:11:26.237Z,22.88
2019-03-29T08:12:31.779Z,22.85
2019-03-29T08:13:21.109Z,22.85
2019-03-29T08:14:21.059Z,22.88
2019-03-29T08:15:21.047Z,22.86
2019-03-29T08:16:21.041Z,22.90
2019-03-29T08:17:21.019Z,22.80
2019-03-29T08:18:21.017Z,22.82
2019-03-29T08:19:21.006Z,22.83
2019-03-29T08:20:44.643Z,22.80
2019-03-29T08:21:22.153Z,22.83
2019-03-29T08:22:20.968Z,22.86
2019-03-29T08:23:20.957Z,22.90
2019-03-29T08:24:20.948Z,22.86
2019-03-29T08:25:20.945Z,22.94
2019-03-29T08:26:20.928Z,22.83
2019-03-29T08:27:20.919Z,22.88
2019-03-29T08:28:20.903Z,22.86
2019-03-29T08:29:20.889Z,22.92
2019-03-29T08:30:20.877Z,22.90
2019-03-29T08:31:21.041Z,22.94
2019-03-29T08:32:20.855Z,22.90
2019-03-29T08:33:20.846Z,22.95
2019-03-29T08:34:20.838Z,23.00
2019-03-29T08:35:20.826Z,22.90
2019-03-29T08:36:20.820Z,22.95
2019-03-29T08:37:20.838Z,23.01
2019-03-29T08:38:20.787Z,22.97
2019-03-29T08:39:27.975Z,22.94
2019-03-29T08:40:21.836Z,23.01
2019-03-29T08:41:20.756Z,22.94
2019-03-29T08:42:20.743Z,22.98
2019-03-29T08:43:33.578Z,22.92
2019-03-29T08:44:20.722Z,22.97
2019-03-29T08:45:20.717Z,23.01
2019-03-29T08:46:20.700Z,22.95
2019-03-29T08:47:20.689Z,22.98
2019-03-29T08:48:20.681Z,22.95
2019-03-29T08:49:20.673Z,22.95
2019-03-29T08:50:20.653Z,22.94
2019-03-29T08:51:20.643Z,22.97
2019-03-29T08:52:20.636Z,22.95
2019-03-29T08:53:20.624Z,22.91
2019-03-29T08:54:20.782Z,22.94
2019-03-29T08:55:20.600Z,22.92
2019-03-29T08:56:20.588Z,23.01
2019-03-29T08:57:20.575Z,22.95
2019-03-29T08:58:20.565Z,23.01
2019-03-29T08:59:20.560Z,22.88
2019-03-29T09:00:20.551Z,22.91
2019-03-29T09:01:20.535Z,23.07
2019-03-29T09:02:20.525Z,23.09
2019-03-29T09:03:20.510Z,23.07
2019-03-29T09:04:21.804Z,23.04
2019-03-29T09:05:20.497Z,23.04
2019-03-29T09:06:20.482Z,23.10
2019-03-29T09:07:20.464Z,23.01
2019-03-29T09:08:20.455Z,23.09
2019-03-29T09:09:20.448Z,23.09
2019-03-29T09:10:20.467Z,23.10
2019-03-29T09:11:20.420Z,23.01
2019-03-29T09:12:20.412Z,23.05
2019-03-29T09:13:20.407Z,23.12
2019-03-29T09:14:31.649Z,23.07
2019-03-29T09:15:20.380Z,23.05
2019-03-29T09:16:20.481Z,23.15
2019-03-29T09:17:20.354Z,23.10
2019-03-29T09:18:20.349Z,23.05
2019-03-29T09:19:20.338Z,23.10
2019-03-29T09:20:20.327Z,23.07
2019-03-29T09:21:20.313Z,23.12
2019-03-29T09:22:20.337Z,23.09
2019-03-29T09:23:20.296Z,23.05
2019-03-29T09:24:22.383Z,23.13
2019-03-29T09:25:21.170Z,23.17
2019-03-29T09:26:20.260Z,23.17
2019-03-29T09:27:20.248Z,23.13
2019-03-29T09:28:20.273Z,23.15
2019-03-29T09:29:20.220Z,23.09
2019-03-29T09:30:20.214Z,23.16
2019-03-29T09:31:20.199Z,23.15
2019-03-29T09:32:20.190Z,23.15
2019-03-29T09:33:20.179Z,23.15
2019-03-29T09:34:20.175Z,23.19
2019-03-29T09:35:20.161Z,23.17
2019-03-29T09:36:20.144Z,23.12
2019-03-29T09:37:20.138Z,23.13
2019-03-29T09:38:20.122Z,23.17
2019-03-29T09:39:20.290Z,23.17
2019-03-29T09:40:20.098Z,23.13
2019-03-29T09:41:20.087Z,23.25
2019-03-29T09:42:28.822Z,23.27
2019-03-29T09:43:21.064Z,23.20
2019-03-29T09:44:20.054Z,23.25
2019-03-29T09:45:30.513Z,23.27
2019-03-29T09:46:20.033Z,23.19
2019-03-29T09:47:20.024Z,23.25
2019-03-29T09:48:20.006Z,23.19
2019-03-29T09:49:19.999Z,23.19
2019-03-29T09:50:22.746Z,23.25
2019-03-29T09:51:19.979Z,23.23
2019-03-29T09:52:19.962Z,23.23
2019-03-29T09:53:19.952Z,23.27
2019-03-29T09:54:20.578Z,23.27
2019-03-29T09:55:19.934Z,23.32
2019-03-29T09:56:19.962Z,23.28
2019-03-29T09:57:19.905Z,23.33
2019-03-29T09:58:19.896Z,23.28
2019-03-29T09:59:23.003Z,23.32
2019-03-29T10:00:23.209Z,23.39
2019-03-29T10:01:20.936Z,23.33
2019-03-29T10:02:19.857Z,23.39
2019-03-29T10:03:19.840Z,23.38
2019-03-29T10:04:19.832Z,23.35
2019-03-29T10:05:20.481Z,23.43
2019-03-29T10:06:19.808Z,23.43
2019-03-29T10:07:19.834Z,23.40
2019-03-29T10:08:19.785Z,23.43
2019-03-29T10:09:19.770Z,23.46
2019-03-29T10:10:19.760Z,23.40
2019-03-29T10:11:22.011Z,23.43
2019-03-29T10:12:19.740Z,23.46
2019-03-29T10:13:19.733Z,23.46
2019-03-29T10:14:19.718Z,23.42
2019-03-29T10:15:19.706Z,23.47
2019-03-29T10:16:29.800Z,23.46
2019-03-29T10:17:19.733Z,23.42
2019-03-29T10:18:19.707Z,23.47
2019-03-29T10:19:19.657Z,23.48
2019-03-29T10:20:19.643Z,23.48
2019-03-29T10:21:19.633Z,23.53
2019-03-29T10:22:19.625Z,23.50
2019-03-29T10:23:19.612Z,23.50
2019-03-29T10:24:19.777Z,23.57
2019-03-29T10:25:20.449Z,23.57
2019-03-29T10:26:19.576Z,23.57
2019-03-29T10:27:19.571Z,23.55
2019-03-29T10:28:19.560Z,23.55
2019-03-29T10:29:19.547Z,23.54
2019-03-29T10:30:19.545Z,23.54
2019-03-29T10:31:31.551Z,23.60
2019-03-29T10:32:20.510Z,23.54
2019-03-29T10:33:19.498Z,23.65
2019-03-29T10:34:19.493Z,23.70
2019-03-29T10:35:19.521Z,23.63
2019-03-29T10:36:19.479Z,23.69
2019-03-29T10:37:19.454Z,23.63
2019-03-29T10:38:19.451Z,23.68
2019-03-29T10:39:19.430Z,23.72
2019-03-29T10:40:21.758Z,23.58
2019-03-29T10:41:22.728Z,23.65
2019-03-29T10:42:19.400Z,23.72
2019-03-29T10:43:19.388Z,23.78
2019-03-29T10:44:19.382Z,23.60
2019-03-29T10:45:19.371Z,23.75
2019-03-29T10:46:19.352Z,23.70
2019-03-29T10:47:43.296Z,23.73
2019-03-29T10:48:20.329Z,23.63
2019-03-29T10:49:19.319Z,23.79
2019-03-29T10:50:19.318Z,23.73
2019-03-29T10:51:19.302Z,23.76
2019-03-29T10:52:19.327Z,23.75
2019-03-29T10:53:19.285Z,23.79
2019-03-29T10:54:19.263Z,23.58
2019-03-29T10:55:19.253Z,23.60
2019-03-29T10:56:32.910Z,23.80
2019-03-29T10:57:20.276Z,23.72
2019-03-29T10:58:19.218Z,23.65
2019-03-29T10:59:27.139Z,23.76
2019-03-29T11:00:21.558Z,23.55
2019-03-29T11:01:19.196Z,23.73
2019-03-29T11:02:19.178Z,23.70
2019-03-29T11:03:19.173Z,23.66
2019-03-29T11:04:19.150Z,23.68
2019-03-29T11:05:19.143Z,23.76
2019-03-29T11:06:19.130Z,23.79
2019-03-29T11:07:19.119Z,23.73
2019-03-29T11:08:19.115Z,23.73
2019-03-29T11:09:19.111Z,23.76
2019-03-29T11:10:19.088Z,23.69
2019-03-29T11:11:19.174Z,23.76
2019-03-29T11:12:19.065Z,23.75
2019-03-29T11:13:19.052Z,23.73
2019-03-29T11:14:19.126Z,23.76
2019-03-29T11:15:19.027Z,23.70
2019-03-29T11:16:19.024Z,23.72
2019-03-29T11:17:19.009Z,23.73
2019-03-29T11:18:30.382Z,23.75
2019-03-29T11:19:18.989Z,23.75
2019-03-29T11:20:18.988Z,23.70
2019-03-29T11:21:18.968Z,23.78
2019-03-29T11:22:18.951Z,23.72
2019-03-29T11:23:18.946Z,23.75
2019-03-29T11:24:18.970Z,23.79
2019-03-29T11:25:18.921Z,23.72
2019-03-29T11:26:18.906Z,23.79
2019-03-29T11:27:22.238Z,23.73
2019-03-29T11:28:18.888Z,23.79
2019-03-29T11:29:18.873Z,23.83
2019-03-29T11:30:18.899Z,23.80
2019-03-29T11:31:18.851Z,23.75
2019-03-29T11:32:18.838Z,23.80
2019-03-29T11:33:18.826Z,23.84
2019-03-29T11:34:20.964Z,23.78
2019-03-29T11:35:18.807Z,23.76
2019-03-29T11:36:18.806Z,23.84
2019-03-29T11:37:18.781Z,23.79
2019-03-29T11:38:18.777Z,23.78
2019-03-29T11:39:18.762Z,23.79
2019-03-29T11:40:18.749Z,23.78
2019-03-29T11:41:18.784Z,23.79
2019-03-29T11:42:18.728Z,23.79
2019-03-29T11:43:26.578Z,23.83
2019-03-29T11:44:19.706Z,23.78
2019-03-29T11:45:18.703Z,23.84
2019-03-29T11:46:18.682Z,23.84
2019-03-29T11:47:18.867Z,23.83
2019-03-29T11:48:18.667Z,23.76
2019-03-29T11:49:29.674Z,23.84
2019-03-29T11:50:18.646Z,23.85
2019-03-29T11:51:20.034Z,23.80
2019-03-29T11:52:18.618Z,23.80
2019-03-29T11:53:18.616Z,23.85
2019-03-29T11:54:18.595Z,23.79
2019-03-29T11:55:18.630Z,23.79
2019-03-29T11:56:18.571Z,23.83
2019-03-29T11:57:18.581Z,23.85
2019-03-29T11:58:18.557Z,23.84
2019-03-29T11:59:18.548Z,23.84
2019-03-29T12:00:18.525Z,23.85
2019-03-29T12:01:18.517Z,23.85
2019-03-29T12:02:30.617Z,23.84
2019-03-29T12:03:19.495Z,23.84
2019-03-29T12:04:18.526Z,23.85
2019-03-29T12:05:18.472Z,23.80
2019-03-29T12:06:18.464Z,23.85
2019-03-29T12:07:18.452Z,23.80
2019-03-29T12:08:18.446Z,23.83
2019-03-29T12:09:18.429Z,23.80
2019-03-29T12:10:18.426Z,23.85
2019-03-29T12:11:18.405Z,23.87
2019-03-29T12:12:18.390Z,23.88
2019-03-29T12:13:18.382Z,23.88
2019-03-29T12:14:18.468Z,23.88
2019-03-29T12:15:18.399Z,23.85
2019-03-29T12:16:18.348Z,23.88
2019-03-29T12:17:18.335Z,23.93
2019-03-29T12:18:18.331Z,23.85
2019-03-29T12:19:18.314Z,23.83
2019-03-29T12:20:28.216Z,23.91
2019-03-29T12:21:18.364Z,23.91
2019-03-29T12:22:18.285Z,23.90
2019-03-29T12:23:18.268Z,23.95
2019-03-29T12:24:18.259Z,23.91
2019-03-29T12:25:18.254Z,23.84
2019-03-29T12:26:18.238Z,23.83
2019-03-29T12:27:18.248Z,23.93
2019-03-29T12:28:18.213Z,23.83
2019-03-29T12:29:18.207Z,23.90
2019-03-29T12:30:31.564Z,23.80
2019-03-29T12:31:19.176Z,23.80
2019-03-29T12:32:18.168Z,23.80
2019-03-29T12:33:18.196Z,23.80
2019-03-29T12:34:18.144Z,23.91
2019-03-29T12:35:18.132Z,23.85
2019-03-29T12:36:18.123Z,23.84
2019-03-29T12:37:18.114Z,23.85
2019-03-29T12:38:18.102Z,23.85
2019-03-29T12:39:18.096Z,23.83
2019-03-29T12:40:18.082Z,23.76
2019-03-29T12:41:18.069Z,23.75
2019-03-29T12:42:18.057Z,23.79
2019-03-29T12:43:18.071Z,23.85
2019-03-29T12:44:18.037Z,23.76
2019-03-29T12:45:18.024Z,23.78
2019-03-29T12:46:18.012Z,23.80
2019-03-29T12:47:18.001Z,23.80
2019-03-29T12:48:17.995Z,23.76
2019-03-29T12:49:18.158Z,23.80
2019-03-29T12:50:17.965Z,23.76
2019-03-29T12:51:28.571Z,23.79
2019-03-29T12:52:17.948Z,23.72